createdAt,value
2017-01-27T00:00:02.882Z,23.49
2017-01-27T00:00:31.406Z,23.58
2017-01-27T00:01:00.288Z,23.4
2017-01-27T00:01:28.921Z,23.48
2017-01-27T00:01:57.502Z,23.37
2017-01-27T00:02:26.016Z,23.4
2017-01-27T00:02:54.636Z,23.47
2017-01-27T00:03:23.069Z,23.42
2017-01-27T00:03:51.626Z,23.39
2017-01-27T00:04:20.226Z,23.37
2017-01-27T00:04:48.835Z,23.39
2017-01-27T00:05:17.438Z,23.29
2017-01-27T00:05:45.979Z,23.29
2017-01-27T00:06:14.413Z,23.28
2017-01-27T00:06:42.934Z,23.23
2017-01-27T00:07:11.544Z,23.18
2017-01-27T00:07:40.155Z,23.25
2017-01-27T00:08:08.672Z,23.25
2017-01-27T00:08:37.314Z,23.25
2017-01-27T00:09:05.729Z,23.2
2017-01-27T00:09:34.357Z,23.23
2017-01-27T00:10:02.873Z,23.25
2017-01-27T00:10:31.393Z,23.2
2017-01-27T00:10:59.999Z,23.18
2017-01-27T00:11:28.608Z,23.2
2017-01-27T00:11:57.231Z,23.18
2017-01-27T00:12:25.741Z,23.23
2017-01-27T00:12:54.324Z,23.18
2017-01-27T00:13:22.649Z,23.25
2017-01-27T00:13:51.193Z,23.23
2017-01-27T00:14:19.802Z,23.28
2017-01-27T00:14:48.430Z,23.2
2017-01-27T00:15:16.935Z,23.23
2017-01-27T00:15:45.389Z,23.14
2017-01-27T00:16:14.003Z,23.23
2017-01-27T00:16:42.645Z,23.16
2017-01-27T00:17:11.264Z,23.18
2017-01-27T00:17:39.705Z,23.23
2017-01-27T00:18:08.317Z,23.21
2017-01-27T00:18:36.842Z,23.16
2017-01-27T00:19:05.279Z,23.23
2017-01-27T00:19:33.804Z,23.18
2017-01-27T00:20:02.399Z,23.2
2017-01-27T00:20:31.019Z,23.17
2017-01-27T00:20:59.895Z,23.1
2017-01-27T00:21:28.507Z,23.16
2017-01-27T00:21:57.140Z,23.16
2017-01-27T00:22:25.645Z,23.11
2017-01-27T00:22:54.261Z,23.13
2017-01-27T00:23:22.694Z,23.16
2017-01-27T00:23:51.314Z,23.1
2017-01-27T00:24:19.845Z,23.1
2017-01-27T00:24:48.486Z,23.11
2017-01-27T00:25:17.125Z,23.14
2017-01-27T00:25:45.765Z,23.06
2017-01-27T00:26:14.359Z,23.06
2017-01-27T00:26:42.976Z,23.08
2017-01-27T00:27:11.490Z,23.11
2017-01-27T00:27:40.123Z,23.08
2017-01-27T00:28:08.743Z,23.07
2017-01-27T00:28:37.180Z,23.08
2017-01-27T00:29:05.719Z,23.06
2017-01-27T00:29:34.352Z,23.02
2017-01-27T00:30:02.872Z,23.08
2017-01-27T00:30:31.375Z,23.08
2017-01-27T00:30:59.992Z,23.1
2017-01-27T00:31:28.511Z,22.99
2017-01-27T00:31:57.120Z,23.06
2017-01-27T00:32:25.645Z,23.06
2017-01-27T00:32:54.177Z,22.99
2017-01-27T00:33:22.706Z,22.99
2017-01-27T00:33:51.333Z,22.95
2017-01-27T00:34:19.932Z,22.98
2017-01-27T00:34:48.561Z,22.99
2017-01-27T00:35:16.907Z,22.99
2017-01-27T00:35:45.507Z,22.91
2017-01-27T00:36:14.120Z,22.99
2017-01-27T00:36:42.721Z,22.95
2017-01-27T00:37:11.245Z,22.95
2017-01-27T00:37:39.691Z,22.96
2017-01-27T00:38:08.220Z,22.86
2017-01-27T00:38:36.856Z,22.92
2017-01-27T00:39:05.308Z,22.98
2017-01-27T00:39:33.932Z,22.93
2017-01-27T00:40:02.571Z,22.98
2017-01-27T00:40:31.203Z,22.91
2017-01-27T00:40:59.810Z,22.96
2017-01-27T00:41:28.441Z,22.95
2017-01-27T00:41:57.064Z,22.98
2017-01-27T00:42:25.660Z,22.95
2017-01-27T00:42:54.285Z,22.96
2017-01-27T00:43:22.823Z,23.06
2017-01-27T00:43:51.469Z,23.06
2017-01-27T00:44:20.030Z,23.07
2017-01-27T00:44:48.539Z,23.1
2017-01-27T00:45:17.082Z,23.08
2017-01-27T00:45:45.697Z,23.07
2017-01-27T00:46:14.460Z,23.04
2017-01-27T00:46:43.146Z,23.02
2017-01-27T00:47:12.183Z,23.07
2017-01-27T00:47:40.793Z,23.02
2017-01-27T00:48:09.410Z,23.1
2017-01-27T00:48:38.061Z,23.02
2017-01-27T00:49:06.585Z,23.02
2017-01-27T00:49:35.230Z,23.06
2017-01-27T00:50:03.893Z,22.98
2017-01-27T00:50:32.486Z,22.96
2017-01-27T00:51:01.024Z,22.96
2017-01-27T00:51:29.545Z,22.98
2017-01-27T00:51:58.181Z,22.95
2017-01-27T00:52:26.814Z,22.95
2017-01-27T00:52:55.515Z,22.98
2017-01-27T00:53:24.146Z,22.95
2017-01-27T00:53:52.710Z,22.93
2017-01-27T00:54:21.314Z,22.95
2017-01-27T00:54:49.930Z,22.93
2017-01-27T00:55:18.550Z,22.88
2017-01-27T00:55:47.170Z,22.83
2017-01-27T00:56:15.673Z,22.88
2017-01-27T00:56:44.297Z,22.84
2017-01-27T00:57:12.873Z,22.91
2017-01-27T00:57:41.520Z,22.86
2017-01-27T00:58:10.047Z,22.77
2017-01-27T00:58:38.679Z,22.84
2017-01-27T00:59:07.142Z,22.8
2017-01-27T00:59:35.765Z,22.78
2017-01-27T01:00:04.390Z,22.73
2017-01-27T01:00:33.041Z,22.76
2017-01-27T01:01:01.619Z,22.77
2017-01-27T01:01:30.228Z,22.74
2017-01-27T01:01:58.866Z,22.77
2017-01-27T01:02:27.397Z,22.73
2017-01-27T01:02:56.026Z,22.74
2017-01-27T01:03:24.635Z,22.78
2017-01-27T01:03:53.252Z,22.74
2017-01-27T01:04:21.688Z,22.78
2017-01-27T01:04:50.301Z,22.8
2017-01-27T01:05:18.732Z,22.77
2017-01-27T01:05:47.340Z,22.74
2017-01-27T01:06:15.850Z,22.73
2017-01-27T01:06:44.508Z,22.73
2017-01-27T01:07:13.109Z,22.67
2017-01-27T01:07:41.725Z,22.74
2017-01-27T01:08:10.308Z,22.63
2017-01-27T01:08:38.939Z,22.7
2017-01-27T01:09:07.449Z,22.76
2017-01-27T01:09:36.074Z,22.7
2017-01-27T01:10:04.702Z,22.71
2017-01-27T01:10:33.304Z,22.63
2017-01-27T01:11:01.897Z,22.71
2017-01-27T01:11:30.526Z,22.68
2017-01-27T01:11:59.149Z,22.68
2017-01-27T01:12:27.695Z,22.68
2017-01-27T01:12:56.233Z,22.62
2017-01-27T01:13:24.865Z,22.65
2017-01-27T01:13:53.487Z,22.55
2017-01-27T01:14:22.112Z,22.53
2017-01-27T01:14:50.645Z,22.56
2017-01-27T01:15:19.081Z,22.58
2017-01-27T01:15:47.716Z,22.56
2017-01-27T01:16:16.354Z,22.53
2017-01-27T01:16:44.881Z,22.52
2017-01-27T01:17:13.406Z,22.55
2017-01-27T01:17:42.019Z,22.55
2017-01-27T01:18:10.443Z,22.55
2017-01-27T01:18:39.084Z,22.58
2017-01-27T01:19:07.699Z,22.53
2017-01-27T01:19:36.306Z,22.52
2017-01-27T01:20:04.928Z,22.47
2017-01-27T01:20:33.542Z,22.53
2017-01-27T01:21:02.099Z,22.49
2017-01-27T01:21:30.719Z,22.51
2017-01-27T01:21:59.339Z,22.51
2017-01-27T01:22:27.842Z,22.52
2017-01-27T01:22:56.370Z,22.47
2017-01-27T01:23:24.986Z,22.47
2017-01-27T01:23:53.453Z,22.49
2017-01-27T01:24:22.074Z,22.51
2017-01-27T01:24:50.718Z,22.38
2017-01-27T01:25:19.318Z,22.44
2017-01-27T01:25:47.780Z,22.38
2017-01-27T01:26:16.346Z,22.43
2017-01-27T01:26:44.945Z,22.43
2017-01-27T01:27:13.476Z,22.37
2017-01-27T01:27:42.011Z,22.41
2017-01-27T01:28:10.504Z,22.36
2017-01-27T01:28:39.115Z,22.37
2017-01-27T01:29:07.653Z,22.37
2017-01-27T01:29:36.197Z,22.38
2017-01-27T01:30:04.806Z,22.37
2017-01-27T01:30:33.329Z,22.38
2017-01-27T01:31:02.057Z,22.4
2017-01-27T01:31:30.667Z,22.36
2017-01-27T01:31:59.295Z,22.4
2017-01-27T01:32:27.788Z,22.37
2017-01-27T01:32:56.325Z,22.37
2017-01-27T01:33:24.916Z,22.43
2017-01-27T01:33:53.407Z,22.38
2017-01-27T01:34:21.861Z,22.28
2017-01-27T01:34:50.393Z,22.3
2017-01-27T01:35:19.003Z,22.31
2017-01-27T01:35:47.639Z,22.34
2017-01-27T01:36:16.264Z,22.28
2017-01-27T01:36:44.802Z,22.34
2017-01-27T01:37:13.434Z,22.36
2017-01-27T01:37:42.001Z,22.31
2017-01-27T01:38:10.632Z,22.3
2017-01-27T01:38:39.241Z,22.25
2017-01-27T01:39:07.869Z,22.25
2017-01-27T01:39:36.487Z,22.3
2017-01-27T01:40:05.116Z,22.22
2017-01-27T01:40:33.725Z,22.26
2017-01-27T01:41:02.214Z,22.22
2017-01-27T01:41:30.751Z,22.19
2017-01-27T01:41:59.393Z,22.19
2017-01-27T01:42:27.899Z,22.3
2017-01-27T01:42:56.492Z,22.18
2017-01-27T01:43:24.991Z,22.18
2017-01-27T01:43:53.525Z,22.23
2017-01-27T01:44:22.151Z,22.26
2017-01-27T01:44:50.783Z,22.23
2017-01-27T01:45:19.302Z,22.16
2017-01-27T01:45:47.908Z,22.18
2017-01-27T01:46:16.537Z,22.23
2017-01-27T01:46:45.174Z,22.19
2017-01-27T01:47:13.813Z,22.21
2017-01-27T01:47:42.447Z,22.18
2017-01-27T01:48:11.039Z,22.16
2017-01-27T01:48:39.662Z,22.21
2017-01-27T01:49:08.286Z,22.22
2017-01-27T01:49:36.900Z,22.19
2017-01-27T01:50:05.556Z,22.19
2017-01-27T01:50:34.085Z,22.21
2017-01-27T01:51:02.674Z,22.16
2017-01-27T01:51:31.304Z,22.16
2017-01-27T01:51:59.943Z,22.19
2017-01-27T01:52:28.547Z,22.22
2017-01-27T01:52:57.162Z,22.21
2017-01-27T01:53:25.767Z,22.18
2017-01-27T01:53:54.381Z,22.15
2017-01-27T01:54:23.402Z,22.22
2017-01-27T01:54:52.000Z,22.19
2017-01-27T01:55:20.628Z,22.16
2017-01-27T01:55:49.392Z,22.19
2017-01-27T01:56:18.000Z,22.18
2017-01-27T01:56:46.572Z,22.14
2017-01-27T01:57:15.211Z,22.18
2017-01-27T01:57:43.819Z,22.16
2017-01-27T01:58:12.447Z,22.19
2017-01-27T01:58:41.018Z,22.16
2017-01-27T01:59:09.634Z,22.16
2017-01-27T01:59:38.198Z,22.14
2017-01-27T02:00:06.779Z,22.19
2017-01-27T02:00:35.211Z,22.15
2017-01-27T02:01:03.845Z,22.19
2017-01-27T02:01:32.395Z,22.25
2017-01-27T02:02:00.911Z,22.19
2017-01-27T02:02:29.355Z,22.18
2017-01-27T02:02:57.983Z,22.16
2017-01-27T02:03:26.599Z,22.25
2017-01-27T02:03:55.237Z,22.21
2017-01-27T02:04:23.761Z,22.16
2017-01-27T02:04:52.358Z,22.16
2017-01-27T02:05:20.904Z,22.18
2017-01-27T02:05:49.533Z,22.21
2017-01-27T02:06:18.085Z,22.15
2017-01-27T02:06:46.693Z,22.22
2017-01-27T02:07:15.332Z,22.15
2017-01-27T02:07:43.973Z,22.18
2017-01-27T02:08:12.604Z,22.15
2017-01-27T02:08:41.069Z,22.18
2017-01-27T02:09:09.674Z,22.16
2017-01-27T02:09:38.304Z,22.15
2017-01-27T02:10:06.873Z,22.16
2017-01-27T02:10:35.328Z,22.14
2017-01-27T02:11:03.865Z,22.16
2017-01-27T02:11:32.478Z,22.16
2017-01-27T02:12:01.079Z,22.16
2017-01-27T02:12:29.422Z,22.15
2017-01-27T02:12:58.039Z,22.15
2017-01-27T02:13:26.629Z,22.21
2017-01-27T02:13:55.268Z,22.16
2017-01-27T02:14:23.886Z,22.19
2017-01-27T02:14:52.397Z,22.26
2017-01-27T02:15:20.949Z,22.22
2017-01-27T02:15:49.589Z,22.19
2017-01-27T02:16:18.133Z,22.26
2017-01-27T02:16:46.774Z,22.22
2017-01-27T02:17:15.323Z,22.26
2017-01-27T02:17:43.945Z,22.28
2017-01-27T02:18:12.587Z,22.28
2017-01-27T02:18:41.107Z,22.26
2017-01-27T02:19:09.639Z,22.3
2017-01-27T02:19:38.195Z,22.36
2017-01-27T02:20:06.707Z,22.31
2017-01-27T02:20:35.344Z,22.34
2017-01-27T02:21:05.107Z,22.3
2017-01-27T02:21:33.714Z,22.31
2017-01-27T02:22:02.246Z,22.3
2017-01-27T02:22:30.877Z,22.3
2017-01-27T02:22:59.498Z,22.28
2017-01-27T02:23:28.012Z,22.26
2017-01-27T02:23:56.623Z,22.3
2017-01-27T02:24:25.169Z,22.28
2017-01-27T02:24:53.695Z,22.34
2017-01-27T02:25:22.134Z,22.25
2017-01-27T02:25:51.035Z,22.37
2017-01-27T02:26:19.636Z,22.28
2017-01-27T02:26:48.272Z,22.28
2017-01-27T02:27:16.789Z,22.34
2017-01-27T02:27:45.396Z,22.33
2017-01-27T02:28:13.912Z,22.36
2017-01-27T02:28:42.595Z,22.37
2017-01-27T02:29:11.219Z,22.37
2017-01-27T02:29:39.725Z,22.33
2017-01-27T02:30:08.344Z,22.34
2017-01-27T02:30:36.986Z,22.34
2017-01-27T02:31:05.581Z,22.36
2017-01-27T02:31:34.116Z,22.38
2017-01-27T02:32:02.652Z,22.4
2017-01-27T02:32:31.301Z,22.38
2017-01-27T02:32:59.916Z,22.38
2017-01-27T02:33:28.520Z,22.37
2017-01-27T02:33:57.166Z,22.43
2017-01-27T02:34:25.708Z,22.38
2017-01-27T02:34:54.369Z,22.4
2017-01-27T02:35:23.017Z,22.41
2017-01-27T02:35:51.621Z,22.46
2017-01-27T02:36:19.985Z,22.37
2017-01-27T02:36:48.516Z,22.44
2017-01-27T02:37:17.137Z,22.44
2017-01-27T02:37:45.759Z,22.46
2017-01-27T02:38:14.211Z,22.43
2017-01-27T02:38:42.726Z,22.37
2017-01-27T02:39:11.405Z,22.47
2017-01-27T02:39:40.032Z,22.49
2017-01-27T02:40:08.574Z,22.47
2017-01-27T02:40:37.093Z,22.37
2017-01-27T02:41:05.713Z,22.4
2017-01-27T02:41:34.362Z,22.49
2017-01-27T02:42:02.902Z,22.46
2017-01-27T02:42:31.336Z,22.44
2017-01-27T02:42:59.968Z,22.44
2017-01-27T02:43:28.567Z,22.41
2017-01-27T02:43:57.093Z,22.44
2017-01-27T02:44:25.715Z,22.41
2017-01-27T02:44:54.338Z,22.38
2017-01-27T02:45:22.939Z,22.37
2017-01-27T02:45:51.553Z,22.46
2017-01-27T02:46:19.901Z,22.43
2017-01-27T02:46:48.530Z,22.46
2017-01-27T02:47:17.145Z,22.47
2017-01-27T02:47:45.756Z,22.38
2017-01-27T02:48:14.368Z,22.34
2017-01-27T02:48:43.019Z,22.47
2017-01-27T02:49:11.654Z,22.34
2017-01-27T02:49:40.187Z,22.43
2017-01-27T02:50:08.697Z,22.4
2017-01-27T02:50:37.324Z,22.38
2017-01-27T02:51:05.925Z,22.37
2017-01-27T02:51:34.562Z,22.43
2017-01-27T02:52:03.101Z,22.31
2017-01-27T02:52:31.628Z,22.38
2017-01-27T02:53:00.258Z,22.34
2017-01-27T02:53:28.884Z,22.34
2017-01-27T02:53:57.532Z,22.41
2017-01-27T02:54:26.153Z,22.41
2017-01-27T02:54:54.757Z,22.41
2017-01-27T02:55:23.379Z,22.38
2017-01-27T02:55:52.016Z,22.38
2017-01-27T02:56:20.562Z,22.38
2017-01-27T02:56:49.193Z,22.38
2017-01-27T02:57:17.719Z,22.4
2017-01-27T02:57:46.314Z,22.4
2017-01-27T02:58:14.946Z,22.46
2017-01-27T02:58:43.575Z,22.4
2017-01-27T02:59:12.110Z,22.44
2017-01-27T02:59:40.621Z,22.41
2017-01-27T03:00:09.135Z,22.4
2017-01-27T03:00:38.856Z,22.38
2017-01-27T03:01:07.386Z,22.44
2017-01-27T03:01:35.936Z,22.4
2017-01-27T03:02:04.482Z,22.4
2017-01-27T03:02:33.004Z,22.4
2017-01-27T03:03:01.605Z,22.41
2017-01-27T03:03:30.126Z,22.38
2017-01-27T03:03:58.579Z,22.4
2017-01-27T03:04:27.197Z,22.4
2017-01-27T03:04:55.736Z,22.38
2017-01-27T03:05:24.379Z,22.4
2017-01-27T03:05:52.882Z,22.4
2017-01-27T03:06:21.498Z,22.37
2017-01-27T03:06:50.097Z,22.4
2017-01-27T03:07:18.716Z,22.38
2017-01-27T03:07:47.324Z,22.38
2017-01-27T03:08:15.864Z,22.44
2017-01-27T03:08:44.466Z,22.47
2017-01-27T03:09:12.996Z,22.44
2017-01-27T03:09:41.603Z,22.41
2017-01-27T03:10:10.116Z,22.37
2017-01-27T03:10:38.731Z,22.46
2017-01-27T03:11:07.355Z,22.49
2017-01-27T03:11:35.700Z,22.41
2017-01-27T03:12:04.340Z,22.41
2017-01-27T03:12:32.970Z,22.38
2017-01-27T03:13:01.497Z,22.47
2017-01-27T03:13:30.049Z,22.37
2017-01-27T03:13:58.662Z,22.43
2017-01-27T03:14:27.172Z,22.52
2017-01-27T03:14:55.707Z,22.52
2017-01-27T03:15:24.317Z,22.49
2017-01-27T03:15:52.952Z,22.51
2017-01-27T03:16:21.490Z,22.51
2017-01-27T03:16:50.037Z,22.51
2017-01-27T03:17:18.631Z,22.49
2017-01-27T03:17:47.307Z,22.47
2017-01-27T03:18:16.247Z,22.51
2017-01-27T03:18:44.886Z,22.53
2017-01-27T03:19:13.414Z,22.53
2017-01-27T03:19:41.934Z,22.47
2017-01-27T03:20:10.554Z,22.47
2017-01-27T03:20:39.212Z,22.41
2017-01-27T03:21:07.825Z,22.46
2017-01-27T03:21:36.239Z,22.38
2017-01-27T03:22:04.856Z,22.4
2017-01-27T03:22:33.465Z,22.46
2017-01-27T03:23:02.000Z,22.49
2017-01-27T03:23:30.515Z,22.43
2017-01-27T03:23:59.038Z,22.47
2017-01-27T03:24:27.688Z,22.47
2017-01-27T03:24:56.232Z,22.51
2017-01-27T03:25:24.855Z,22.47
2017-01-27T03:25:53.383Z,22.52
2017-01-27T03:26:21.914Z,22.51
2017-01-27T03:26:50.561Z,22.46
2017-01-27T03:27:19.193Z,22.52
2017-01-27T03:27:47.808Z,22.44
2017-01-27T03:28:16.468Z,22.52
2017-01-27T03:28:44.997Z,22.46
2017-01-27T03:29:13.549Z,22.47
2017-01-27T03:29:42.164Z,22.53
2017-01-27T03:30:10.683Z,22.51
2017-01-27T03:30:39.299Z,22.55
2017-01-27T03:31:07.970Z,22.55
2017-01-27T03:31:36.466Z,22.53
2017-01-27T03:32:04.988Z,22.53
2017-01-27T03:32:33.513Z,22.51
2017-01-27T03:33:02.139Z,22.52
2017-01-27T03:33:30.766Z,22.52
2017-01-27T03:33:59.359Z,22.55
2017-01-27T03:34:27.873Z,22.53
2017-01-27T03:34:56.485Z,22.62
2017-01-27T03:35:25.120Z,22.61
2017-01-27T03:35:53.768Z,22.55
2017-01-27T03:36:22.293Z,22.56
2017-01-27T03:36:50.906Z,22.53
2017-01-27T03:37:19.565Z,22.55
2017-01-27T03:37:48.084Z,22.52
2017-01-27T03:38:16.600Z,22.52
2017-01-27T03:38:45.145Z,22.52
2017-01-27T03:39:13.685Z,22.49
2017-01-27T03:39:42.207Z,22.51
2017-01-27T03:40:10.713Z,22.52
2017-01-27T03:40:39.323Z,22.53
2017-01-27T03:41:07.965Z,22.53
2017-01-27T03:41:36.590Z,22.51
2017-01-27T03:42:05.193Z,22.4
2017-01-27T03:42:33.800Z,22.44
2017-01-27T03:43:02.414Z,22.46
2017-01-27T03:43:30.942Z,22.44
2017-01-27T03:43:59.480Z,22.4
2017-01-27T03:44:28.096Z,22.37
2017-01-27T03:44:58.144Z,22.37
2017-01-27T03:45:26.764Z,22.44
2017-01-27T03:45:55.661Z,22.41
2017-01-27T03:46:24.187Z,22.44
2017-01-27T03:46:52.807Z,22.44
2017-01-27T03:47:21.347Z,22.44
2017-01-27T03:47:49.973Z,22.49
2017-01-27T03:48:18.609Z,22.51
2017-01-27T03:48:47.152Z,22.43
2017-01-27T03:49:15.703Z,22.44
2017-01-27T03:49:44.359Z,22.38
2017-01-27T03:50:12.919Z,22.49
2017-01-27T03:50:41.536Z,22.43
2017-01-27T03:51:09.963Z,22.44
2017-01-27T03:51:38.584Z,22.51
2017-01-27T03:52:07.116Z,22.47
2017-01-27T03:52:35.638Z,22.49
2017-01-27T03:53:04.250Z,22.52
2017-01-27T03:53:32.853Z,22.53
2017-01-27T03:54:01.377Z,22.58
2017-01-27T03:54:29.981Z,22.55
2017-01-27T03:54:58.627Z,22.63
2017-01-27T03:55:27.257Z,22.65
2017-01-27T03:55:56.074Z,22.63
2017-01-27T03:56:24.716Z,22.63
2017-01-27T03:56:53.308Z,22.68
2017-01-27T03:57:21.927Z,22.62
2017-01-27T03:57:50.560Z,22.65
2017-01-27T03:58:19.148Z,22.74
2017-01-27T03:58:47.791Z,22.68
2017-01-27T03:59:16.419Z,22.63
2017-01-27T03:59:45.008Z,22.73
2017-01-27T04:00:13.614Z,22.67
2017-01-27T04:00:42.187Z,22.68
2017-01-27T04:01:10.910Z,22.65
2017-01-27T04:01:39.437Z,22.67
2017-01-27T04:02:07.983Z,22.74
2017-01-27T04:02:36.591Z,22.7
2017-01-27T04:03:05.196Z,22.65
2017-01-27T04:03:33.792Z,22.7
2017-01-27T04:04:02.441Z,22.71
2017-01-27T04:04:30.897Z,22.68
2017-01-27T04:04:59.450Z,22.65
2017-01-27T04:05:27.956Z,22.65
2017-01-27T04:05:56.594Z,22.71
2017-01-27T04:06:25.224Z,22.67
2017-01-27T04:06:53.747Z,22.68
2017-01-27T04:07:22.248Z,22.67
2017-01-27T04:07:50.893Z,22.67
2017-01-27T04:08:19.429Z,22.63
2017-01-27T04:08:47.943Z,22.68
2017-01-27T04:09:16.443Z,22.68
2017-01-27T04:09:44.998Z,22.68
2017-01-27T04:10:13.620Z,22.74
2017-01-27T04:10:42.249Z,22.65
2017-01-27T04:11:10.851Z,22.67
2017-01-27T04:11:39.462Z,22.67
2017-01-27T04:12:08.111Z,22.65
2017-01-27T04:12:36.745Z,22.7
2017-01-27T04:13:05.381Z,22.63
2017-01-27T04:13:33.903Z,22.63
2017-01-27T04:14:02.370Z,22.65
2017-01-27T04:14:31.016Z,22.62
2017-01-27T04:14:59.551Z,22.65
2017-01-27T04:15:28.173Z,22.53
2017-01-27T04:15:56.834Z,22.55
2017-01-27T04:16:25.459Z,22.56
2017-01-27T04:16:54.096Z,22.55
2017-01-27T04:17:22.678Z,22.56
2017-01-27T04:17:51.310Z,22.53
2017-01-27T04:18:19.938Z,22.56
2017-01-27T04:18:48.557Z,22.52
2017-01-27T04:19:17.062Z,22.49
2017-01-27T04:19:45.573Z,22.52
2017-01-27T04:20:14.098Z,22.38
2017-01-27T04:20:42.529Z,22.41
2017-01-27T04:21:11.247Z,22.38
2017-01-27T04:21:39.882Z,22.4
2017-01-27T04:22:08.501Z,22.36
2017-01-27T04:22:37.112Z,22.37
2017-01-27T04:23:05.736Z,22.31
2017-01-27T04:23:34.336Z,22.31
2017-01-27T04:24:02.929Z,22.31
2017-01-27T04:24:31.549Z,22.28
2017-01-27T04:25:00.163Z,22.3
2017-01-27T04:25:28.698Z,22.28
2017-01-27T04:25:57.318Z,22.21
2017-01-27T04:26:27.917Z,22.19
2017-01-27T04:26:56.516Z,22.3
2017-01-27T04:27:25.131Z,22.14
2017-01-27T04:27:53.716Z,22.18
2017-01-27T04:28:22.363Z,22.15
2017-01-27T04:28:50.991Z,22.07
2017-01-27T04:29:19.565Z,22.19
2017-01-27T04:29:48.206Z,22.12
2017-01-27T04:30:16.717Z,22.12
2017-01-27T04:30:45.331Z,22.12
2017-01-27T04:31:13.941Z,22.15
2017-01-27T04:31:42.535Z,22.25
2017-01-27T04:32:11.073Z,22.15
2017-01-27T04:32:39.519Z,22.21
2017-01-27T04:33:08.151Z,22.18
2017-01-27T04:33:36.760Z,22.21
2017-01-27T04:34:05.348Z,22.18
2017-01-27T04:34:33.781Z,22.19
2017-01-27T04:35:02.426Z,22.16
2017-01-27T04:35:30.742Z,22.16
2017-01-27T04:35:59.340Z,22.19
2017-01-27T04:36:27.782Z,22.16
2017-01-27T04:36:56.385Z,22.18
2017-01-27T04:37:25.026Z,22.19
2017-01-27T04:37:53.814Z,22.15
2017-01-27T04:38:22.839Z,22.19
2017-01-27T04:38:51.450Z,22.23
2017-01-27T04:39:20.101Z,22.18
2017-01-27T04:39:48.754Z,22.14
2017-01-27T04:40:17.231Z,22.12
2017-01-27T04:40:46.150Z,22.08
2017-01-27T04:41:14.807Z,22.1
2017-01-27T04:41:43.841Z,22.12
2017-01-27T04:42:12.370Z,22.12
2017-01-27T04:42:40.992Z,22
2017-01-27T04:43:09.522Z,22.12
2017-01-27T04:43:38.109Z,22.08
2017-01-27T04:44:06.756Z,22.12
2017-01-27T04:44:35.282Z,22.12
2017-01-27T04:45:03.893Z,22.04
2017-01-27T04:45:32.509Z,22.06
2017-01-27T04:46:00.993Z,22.03
2017-01-27T04:46:29.445Z,22.01
2017-01-27T04:46:57.964Z,22
2017-01-27T04:47:26.603Z,21.92
2017-01-27T04:47:56.899Z,22.01
2017-01-27T04:48:26.766Z,22
2017-01-27T04:48:55.383Z,21.97
2017-01-27T04:49:23.847Z,21.97
2017-01-27T04:49:52.374Z,21.96
2017-01-27T04:50:20.914Z,21.96
2017-01-27T04:50:49.551Z,21.96
2017-01-27T04:51:18.077Z,21.91
2017-01-27T04:51:46.720Z,21.91
2017-01-27T04:52:15.341Z,21.94
2017-01-27T04:52:44.004Z,21.91
2017-01-27T04:53:12.615Z,21.88
2017-01-27T04:53:41.183Z,21.84
2017-01-27T04:54:09.785Z,21.81
2017-01-27T04:54:38.375Z,21.84
2017-01-27T04:55:07.012Z,21.92
2017-01-27T04:55:35.647Z,21.88
2017-01-27T04:56:04.252Z,21.92
2017-01-27T04:56:32.860Z,21.88
2017-01-27T04:57:01.469Z,21.85
2017-01-27T04:57:30.010Z,21.92
2017-01-27T04:57:58.665Z,21.89
2017-01-27T04:58:27.289Z,21.92
2017-01-27T04:58:55.830Z,21.91
2017-01-27T04:59:24.334Z,21.92
2017-01-27T04:59:52.948Z,21.94
2017-01-27T05:00:21.550Z,21.94
2017-01-27T05:00:50.091Z,21.88
2017-01-27T05:01:18.631Z,21.85
2017-01-27T05:01:47.280Z,21.89
2017-01-27T05:02:15.853Z,21.91
2017-01-27T05:02:44.467Z,21.89
2017-01-27T05:03:12.997Z,21.89
2017-01-27T05:03:41.624Z,21.85
2017-01-27T05:04:10.178Z,21.88
2017-01-27T05:04:38.806Z,21.84
2017-01-27T05:05:07.331Z,21.81
2017-01-27T05:05:35.733Z,21.81
2017-01-27T05:06:04.382Z,21.85
2017-01-27T05:06:32.923Z,21.83
2017-01-27T05:07:01.444Z,21.88
2017-01-27T05:07:30.052Z,21.75
2017-01-27T05:07:58.472Z,21.78
2017-01-27T05:08:27.080Z,21.75
2017-01-27T05:08:55.694Z,21.84
2017-01-27T05:09:24.320Z,21.84
2017-01-27T05:09:52.953Z,21.77
2017-01-27T05:10:21.580Z,21.85
2017-01-27T05:10:50.110Z,21.83
2017-01-27T05:11:18.632Z,21.89
2017-01-27T05:11:47.254Z,21.89
2017-01-27T05:12:15.873Z,21.85
2017-01-27T05:12:44.468Z,21.85
2017-01-27T05:13:13.013Z,21.8
2017-01-27T05:13:41.621Z,21.8
2017-01-27T05:14:10.238Z,21.74
2017-01-27T05:14:38.842Z,21.84
2017-01-27T05:15:07.444Z,21.83
2017-01-27T05:15:36.046Z,21.78
2017-01-27T05:16:04.560Z,21.81
2017-01-27T05:16:33.078Z,21.8
2017-01-27T05:17:01.536Z,21.89
2017-01-27T05:17:30.175Z,21.78
2017-01-27T05:17:58.822Z,21.89
2017-01-27T05:18:27.460Z,21.88
2017-01-27T05:18:55.973Z,21.85
2017-01-27T05:19:24.559Z,21.78
2017-01-27T05:19:53.180Z,21.83
2017-01-27T05:20:21.813Z,21.78
2017-01-27T05:20:50.355Z,21.78
2017-01-27T05:21:18.975Z,21.83
2017-01-27T05:21:47.579Z,21.78
2017-01-27T05:22:16.122Z,21.8
2017-01-27T05:22:44.727Z,21.85
2017-01-27T05:23:13.164Z,21.78
2017-01-27T05:23:41.781Z,21.78
2017-01-27T05:24:10.394Z,21.84
2017-01-27T05:24:39.013Z,21.91
2017-01-27T05:25:07.645Z,21.83
2017-01-27T05:25:36.258Z,21.83
2017-01-27T05:26:04.779Z,21.88
2017-01-27T05:26:33.404Z,21.83
2017-01-27T05:27:02.004Z,21.84
2017-01-27T05:27:30.591Z,21.85
2017-01-27T05:27:59.046Z,21.88
2017-01-27T05:28:27.724Z,21.72
2017-01-27T05:28:56.383Z,21.85
2017-01-27T05:29:25.001Z,21.83
2017-01-27T05:29:53.527Z,21.83
2017-01-27T05:30:22.015Z,21.8
2017-01-27T05:30:50.559Z,21.78
2017-01-27T05:31:19.001Z,21.77
2017-01-27T05:31:47.604Z,21.75
2017-01-27T05:32:16.115Z,21.78
2017-01-27T05:32:44.720Z,21.8
2017-01-27T05:33:13.302Z,21.8
2017-01-27T05:33:41.902Z,21.81
2017-01-27T05:34:10.355Z,21.81
2017-01-27T05:34:39.000Z,21.81
2017-01-27T05:35:07.607Z,21.8
2017-01-27T05:35:36.265Z,21.8
2017-01-27T05:36:04.857Z,21.78
2017-01-27T05:36:33.367Z,21.78
2017-01-27T05:37:01.880Z,21.8
2017-01-27T05:37:30.505Z,21.75
2017-01-27T05:37:59.039Z,21.72
2017-01-27T05:38:27.654Z,21.74
2017-01-27T05:38:56.221Z,21.78
2017-01-27T05:39:24.878Z,21.74
2017-01-27T05:39:53.390Z,21.78
2017-01-27T05:40:21.907Z,21.74
2017-01-27T05:40:50.373Z,21.78
2017-01-27T05:41:18.986Z,21.77
2017-01-27T05:41:47.620Z,21.75
2017-01-27T05:42:16.144Z,21.78
2017-01-27T05:42:44.747Z,21.7
2017-01-27T05:43:13.291Z,21.7
2017-01-27T05:43:41.933Z,21.7
2017-01-27T05:44:10.513Z,21.7
2017-01-27T05:44:39.143Z,21.63
2017-01-27T05:45:07.720Z,21.63
2017-01-27T05:45:36.331Z,21.69
2017-01-27T05:46:04.874Z,21.72
2017-01-27T05:46:33.464Z,21.7
2017-01-27T05:47:02.171Z,21.62
2017-01-27T05:47:30.799Z,21.63
2017-01-27T05:47:59.381Z,21.66
2017-01-27T05:48:27.917Z,21.69
2017-01-27T05:48:56.324Z,21.65
2017-01-27T05:49:24.920Z,21.69
2017-01-27T05:49:53.523Z,21.69
2017-01-27T05:50:22.010Z,21.62
2017-01-27T05:50:50.907Z,21.66
2017-01-27T05:51:19.543Z,21.69
2017-01-27T05:51:48.188Z,21.63
2017-01-27T05:52:16.728Z,21.68
2017-01-27T05:52:45.366Z,21.62
2017-01-27T05:53:13.918Z,21.66
2017-01-27T05:53:42.533Z,21.69
2017-01-27T05:54:11.158Z,21.68
2017-01-27T05:54:39.799Z,21.68
2017-01-27T05:55:08.414Z,21.68
2017-01-27T05:55:36.943Z,21.69
2017-01-27T05:56:05.564Z,21.66
2017-01-27T05:56:34.186Z,21.62
2017-01-27T05:57:02.805Z,21.58
2017-01-27T05:57:31.244Z,21.58
2017-01-27T05:57:59.789Z,21.7
2017-01-27T05:58:28.389Z,21.63
2017-01-27T05:58:57.016Z,21.63
2017-01-27T05:59:25.513Z,21.53
2017-01-27T05:59:54.020Z,21.62
2017-01-27T06:00:22.651Z,21.53
2017-01-27T06:00:51.272Z,21.53
2017-01-27T06:01:19.717Z,21.5
2017-01-27T06:01:48.271Z,21.51
2017-01-27T06:02:16.841Z,21.54
2017-01-27T06:02:45.466Z,21.53
2017-01-27T06:03:14.068Z,21.53
2017-01-27T06:03:42.693Z,21.5
2017-01-27T06:04:11.334Z,21.63
2017-01-27T06:04:39.942Z,21.53
2017-01-27T06:05:08.561Z,21.66
2017-01-27T06:05:37.216Z,21.66
2017-01-27T06:06:05.796Z,21.66
2017-01-27T06:06:34.310Z,21.62
2017-01-27T06:07:02.843Z,21.66
2017-01-27T06:07:31.193Z,21.65
2017-01-27T06:07:59.746Z,21.66
2017-01-27T06:08:28.274Z,21.63
2017-01-27T06:08:56.877Z,21.68
2017-01-27T06:09:25.400Z,21.69